createdAt,value
2023-05-08T00:01:17.489Z,12.24
2023-05-08T00:03:44.151Z,12.23
2023-05-08T00:06:10.796Z,12.22
2023-05-08T00:08:37.297Z,12.18
2023-05-08T00:11:03.804Z,12.14
2023-05-08T00:13:30.329Z,12.12
2023-05-08T00:15:56.819Z,12.11
2023-05-08T00:18:23.468Z,12.08
2023-05-08T00:20:49.979Z,12.06
2023-05-08T00:23:16.438Z,12.05
2023-05-08T00:25:42.937Z,12.03
2023-05-08T00:28:09.377Z,12.01
2023-05-08T00:30:35.887Z,11.98
2023-05-08T00:33:02.401Z,11.95
2023-05-08T00:35:28.851Z,11.95
2023-05-08T00:37:55.357Z,11.93
2023-05-08T00:40:21.838Z,11.92
2023-05-08T00:42:48.471Z,11.91
2023-05-08T00:45:14.960Z,11.87
2023-05-08T00:47:42.130Z,11.83
2023-05-08T00:50:10.215Z,11.80
2023-05-08T00:52:37.538Z,11.80
2023-05-08T00:55:05.152Z,11.80
2023-05-08T00:57:35.693Z,11.78
2023-05-08T01:00:04.564Z,11.73
2023-05-08T01:02:32.009Z,11.69
2023-05-08T01:04:58.960Z,11.66
2023-05-08T01:07:25.721Z,11.60
2023-05-08T01:09:52.274Z,11.57
2023-05-08T01:13:05.021Z,11.47
2023-05-08T01:15:42.814Z,11.45
2023-05-08T01:18:22.909Z,11.42
2023-05-08T01:21:01.100Z,11.41
2023-05-08T01:23:45.789Z,11.38
2023-05-08T01:26:30.858Z,11.36
2023-05-08T01:29:34.375Z,11.34
2023-05-08T01:32:12.378Z,11.29
2023-05-08T01:34:49.884Z,11.26
2023-05-08T01:37:21.817Z,11.16
2023-05-08T01:40:00.321Z,11.14
2023-05-08T01:42:53.581Z,11.12
2023-05-08T01:45:27.057Z,11.11
2023-05-08T01:48:08.126Z,11.09
2023-05-08T01:50:40.651Z,11.04
2023-05-08T01:53:20.244Z,11.05
2023-05-08T01:55:50.001Z,11.03
2023-05-08T01:58:17.904Z,11.01
2023-05-08T02:00:45.677Z,11.01
2023-05-08T02:03:16.498Z,10.97
2023-05-08T02:05:45.022Z,10.97
2023-05-08T02:08:14.063Z,10.96
2023-05-08T02:10:42.222Z,10.95
2023-05-08T02:13:11.241Z,10.95
2023-05-08T02:15:39.832Z,10.93
2023-05-08T02:18:08.522Z,10.91
2023-05-08T02:20:36.350Z,10.90
2023-05-08T02:23:03.542Z,10.89
2023-05-08T02:25:31.151Z,10.88
2023-05-08T02:27:58.312Z,10.87
2023-05-08T02:30:26.190Z,10.87
2023-05-08T02:32:54.592Z,10.86
2023-05-08T02:35:24.750Z,10.82
2023-05-08T02:37:57.137Z,10.82
2023-05-08T02:40:27.638Z,10.81
2023-05-08T02:42:55.593Z,10.78
2023-05-08T02:45:25.692Z,10.76
2023-05-08T02:48:18.126Z,10.77
2023-05-08T02:50:53.646Z,10.75
2023-05-08T02:53:31.600Z,10.72
2023-05-08T02:56:07.983Z,10.69
2023-05-08T02:58:45.851Z,10.69
2023-05-08T03:01:24.412Z,10.69
2023-05-08T03:04:01.540Z,10.66
2023-05-08T03:06:37.674Z,10.67
2023-05-08T03:09:06.666Z,10.68
2023-05-08T03:11:44.872Z,10.71
2023-05-08T03:14:14.877Z,10.70
2023-05-08T03:16:44.665Z,10.70
2023-05-08T03:19:23.061Z,10.70
2023-05-08T03:21:52.033Z,10.67
2023-05-08T03:24:20.637Z,10.63
2023-05-08T03:26:47.697Z,10.59
2023-05-08T03:29:15.491Z,10.54
2023-05-08T03:31:43.908Z,10.52
2023-05-08T03:34:13.551Z,10.47
2023-05-08T03:36:40.927Z,10.41
2023-05-08T03:39:07.868Z,10.44
2023-05-08T03:41:34.593Z,10.43
2023-05-08T03:44:03.279Z,10.43
2023-05-08T03:46:31.965Z,10.43
2023-05-08T03:49:02.207Z,10.40
2023-05-08T03:51:29.244Z,10.40
2023-05-08T03:53:55.729Z,10.39
2023-05-08T03:56:24.696Z,10.37
2023-05-08T03:59:12.481Z,10.34
2023-05-08T04:01:44.268Z,10.34
2023-05-08T04:04:13.590Z,10.34
2023-05-08T04:07:08.350Z,10.34
2023-05-08T04:09:55.582Z,10.31
2023-05-08T04:12:38.281Z,10.28
2023-05-08T04:15:09.971Z,10.27
2023-05-08T04:17:47.270Z,10.22
2023-05-08T04:20:19.445Z,10.19
2023-05-08T04:22:50.180Z,10.17
2023-05-08T04:25:18.974Z,10.17
2023-05-08T04:27:47.831Z,10.19
2023-05-08T04:30:14.982Z,10.24
2023-05-08T04:32:44.153Z,10.28
2023-05-08T04:35:13.575Z,10.35
2023-05-08T04:37:43.331Z,10.40
2023-05-08T04:40:10.737Z,10.45
2023-05-08T04:42:39.489Z,10.46
2023-05-08T04:45:06.827Z,10.53
2023-05-08T04:47:33.505Z,10.61
2023-05-08T04:50:02.756Z,10.71
2023-05-08T04:52:31.319Z,10.77
2023-05-08T04:54:57.875Z,10.80
2023-05-08T04:57:24.429Z,11.02
2023-05-08T04:59:51.341Z,11.27
2023-05-08T05:02:18.177Z,11.58
2023-05-08T05:04:46.119Z,12.16
2023-05-08T05:07:13.363Z,12.79
2023-05-08T05:09:40.007Z,13.23
2023-05-08T05:12:07.565Z,14.48
2023-05-08T05:14:35.317Z,15.59
2023-05-08T05:17:02.334Z,16.67
2023-05-08T05:19:29.452Z,17.23
2023-05-08T05:21:56.172Z,17.07
2023-05-08T05:24:22.683Z,17.44
2023-05-08T05:26:49.326Z,16.87
2023-05-08T05:29:15.885Z,15.54
2023-05-08T05:31:42.711Z,14.80
2023-05-08T05:34:09.468Z,14.34
2023-05-08T05:36:36.407Z,14.02
2023-05-08T05:39:03.370Z,13.76
2023-05-08T05:41:30.715Z,13.67
2023-05-08T05:43:57.471Z,13.53
2023-05-08T05:46:32.189Z,13.53
2023-05-08T05:49:01.158Z,13.62
2023-05-08T05:51:28.585Z,13.69
2023-05-08T05:53:55.379Z,13.78
2023-05-08T05:56:23.403Z,14.12
2023-05-08T05:58:50.124Z,14.59
2023-05-08T06:01:17.009Z,15.03
2023-05-08T06:03:44.136Z,15.12
2023-05-08T06:06:11.118Z,15.38
2023-05-08T06:08:37.550Z,15.43
2023-05-08T06:11:04.093Z,15.57
2023-05-08T06:13:31.438Z,15.54
2023-05-08T06:15:58.933Z,15.82
2023-05-08T06:18:25.441Z,15.94
2023-05-08T06:20:57.653Z,15.87
2023-05-08T06:23:24.532Z,15.74
2023-05-08T06:25:51.137Z,16.01
2023-05-08T06:28:17.911Z,16.03
2023-05-08T06:30:44.432Z,15.89
2023-05-08T06:33:11.222Z,15.70
2023-05-08T06:35:37.763Z,15.74
2023-05-08T06:38:04.353Z,15.79
2023-05-08T06:40:30.834Z,15.79
2023-05-08T06:42:57.399Z,15.93
2023-05-08T06:45:23.854Z,16.05
2023-05-08T06:47:50.410Z,16.12
2023-05-08T06:50:16.938Z,16.26
2023-05-08T06:52:43.426Z,16.44
2023-05-08T06:55:09.891Z,16.56
2023-05-08T06:57:36.372Z,16.64
2023-05-08T07:00:03.040Z,16.81
2023-05-08T07:02:29.599Z,16.76
2023-05-08T07:04:56.459Z,17.08
2023-05-08T07:07:23.189Z,17.18
2023-05-08T07:09:49.685Z,17.12
2023-05-08T07:12:16.740Z,17.12
2023-05-08T07:14:43.609Z,17.07
2023-05-08T07:17:10.184Z,16.96
2023-05-08T07:19:37.421Z,16.97
2023-05-08T07:22:05.014Z,16.88
2023-05-08T07:24:32.099Z,16.70
2023-05-08T07:26:59.732Z,16.64
2023-05-08T07:29:26.989Z,16.62
2023-05-08T07:31:53.625Z,16.69
2023-05-08T07:34:20.157Z,16.65
2023-05-08T07:36:46.584Z,16.72
2023-05-08T07:39:13.083Z,16.75
2023-05-08T07:41:40.957Z,16.72
2023-05-08T07:44:07.897Z,16.70
2023-05-08T07:46:34.493Z,16.73
2023-05-08T07:49:01.096Z,16.81
2023-05-08T07:51:29.876Z,16.67
2023-05-08T07:53:56.429Z,16.75
2023-05-08T07:56:23.086Z,16.87
2023-05-08T07:58:49.904Z,17.03
2023-05-08T08:01:18.111Z,17.11
2023-05-08T08:03:45.610Z,17.16
2023-05-08T08:06:12.270Z,17.18
2023-05-08T08:08:39.310Z,17.25
2023-05-08T08:11:06.629Z,17.23
2023-05-08T08:13:33.303Z,17.25
2023-05-08T08:16:00.928Z,17.27
2023-05-08T08:18:27.515Z,17.16
2023-05-08T08:20:54.058Z,17.19
2023-05-08T08:23:20.484Z,17.10
2023-05-08T08:25:47.015Z,17.02
2023-05-08T08:28:13.494Z,17.05
2023-05-08T08:30:39.981Z,17.10
2023-05-08T08:33:07.263Z,17.10
2023-05-08T08:35:33.754Z,17.09
2023-05-08T08:38:00.268Z,17.14
2023-05-08T08:40:27.052Z,17.32
2023-05-08T08:42:54.761Z,17.40
2023-05-08T08:45:21.312Z,17.65
2023-05-08T08:47:48.440Z,18.07
2023-05-08T08:50:15.891Z,18.37
2023-05-08T08:53:09.860Z,18.56
2023-05-08T08:55:40.621Z,18.46
2023-05-08T08:58:32.351Z,18.43
2023-05-08T09:01:00.204Z,18.40
2023-05-08T09:03:27.477Z,18.33
2023-05-08T09:05:54.621Z,18.43
2023-05-08T09:08:21.542Z,18.49
2023-05-08T09:10:48.892Z,18.52
2023-05-08T09:13:16.700Z,18.64
2023-05-08T09:15:44.782Z,18.76
2023-05-08T09:18:11.278Z,18.83
2023-05-08T09:20:40.712Z,19.07
2023-05-08T09:23:07.859Z,19.11
2023-05-08T09:25:48.578Z,19.15
2023-05-08T09:28:25.936Z,19.16
2023-05-08T09:30:58.175Z,19.15
2023-05-08T09:33:26.731Z,19.55
2023-05-08T09:35:54.297Z,19.65
2023-05-08T09:38:38.535Z,19.56
2023-05-08T09:41:08.805Z,19.62
2023-05-08T09:43:35.909Z,20.24
2023-05-08T09:46:24.320Z,20.69
2023-05-08T09:48:53.956Z,20.62
2023-05-08T09:51:21.543Z,20.88
2023-05-08T09:53:54.410Z,20.88
2023-05-08T09:56:39.040Z,20.84
2023-05-08T09:59:22.814Z,20.54
2023-05-08T10:01:49.359Z,20.66
2023-05-08T10:04:15.991Z,20.45
2023-05-08T10:06:42.644Z,20.35
2023-05-08T10:09:14.393Z,20.36
2023-05-08T10:11:42.416Z,20.28
2023-05-08T10:14:09.152Z,20.53
2023-05-08T10:16:41.750Z,21.17
2023-05-08T10:19:16.845Z,21.02
2023-05-08T10:21:47.769Z,20.89
2023-05-08T10:24:26.879Z,20.81
2023-05-08T10:27:17.035Z,20.67
2023-05-08T10:29:54.315Z,20.55
2023-05-08T10:32:23.124Z,20.54
2023-05-08T10:34:56.446Z,20.41
2023-05-08T10:37:25.248Z,20.28
2023-05-08T10:39:53.657Z,20.42
2023-05-08T10:42:20.495Z,20.50
2023-05-08T10:44:47.066Z,20.54
2023-05-08T10:47:19.597Z,20.63
2023-05-08T10:50:04.318Z,20.79
2023-05-08T10:52:49.212Z,20.92
2023-05-08T10:55:17.549Z,21.12
2023-05-08T10:58:07.024Z,21.34
2023-05-08T11:00:52.005Z,21.27
2023-05-08T11:03:43.335Z,21.17
2023-05-08T11:06:10.497Z,20.98
2023-05-08T11:08:51.764Z,20.88
2023-05-08T11:11:33.838Z,20.91
2023-05-08T11:14:09.331Z,20.89
2023-05-08T11:16:54.080Z,20.86
2023-05-08T11:19:22.654Z,20.75
2023-05-08T11:22:11.060Z,20.59
2023-05-08T11:24:39.055Z,20.50
2023-05-08T11:27:05.729Z,20.64
2023-05-08T11:29:32.827Z,20.75
2023-05-08T11:31:59.648Z,20.98
2023-05-08T11:34:48.680Z,21.19
2023-05-08T11:37:21.180Z,21.10
2023-05-08T11:39:48.636Z,21.22
2023-05-08T11:42:27.156Z,21.60
2023-05-08T11:45:08.020Z,21.80
2023-05-08T11:47:41.426Z,21.81
2023-05-08T11:50:09.455Z,21.77
2023-05-08T11:52:38.529Z,21.66
2023-05-08T11:55:09.919Z,21.57
2023-05-08T11:57:36.440Z,21.48
2023-05-08T12:00:11.164Z,21.27
2023-05-08T12:02:42.781Z,21.22
2023-05-08T12:05:11.328Z,21.29
2023-05-08T12:07:47.728Z,21.56
2023-05-08T12:10:15.326Z,21.69
2023-05-08T12:12:43.369Z,21.76
2023-05-08T12:15:15.208Z,21.61
2023-05-08T12:17:42.634Z,21.69
2023-05-08T12:20:19.082Z,22.20
2023-05-08T12:22:53.132Z,22.44
2023-05-08T12:25:20.470Z,22.48
2023-05-08T12:27:47.399Z,22.25
2023-05-08T12:30:14.926Z,22.05
2023-05-08T12:32:43.653Z,21.99
2023-05-08T12:35:11.689Z,21.97
2023-05-08T12:37:38.723Z,22.08
2023-05-08T12:40:06.649Z,22.38
2023-05-08T12:42:43.273Z,22.62
2023-05-08T12:45:19.817Z,22.80
2023-05-08T12:47:47.862Z,22.62
2023-05-08T12:50:15.842Z,22.50
2023-05-08T12:52:43.003Z,22.66
2023-05-08T12:55:24.814Z,22.79
2023-05-08T12:58:00.501Z,22.67
2023-05-08T13:00:38.881Z,22.52
2023-05-08T13:03:06.410Z,22.38
2023-05-08T13:05:35.285Z,22.35
2023-05-08T13:08:06.444Z,22.29
2023-05-08T13:10:59.678Z,22.20
2023-05-08T13:13:28.103Z,22.13
2023-05-08T13:15:56.185Z,22.05
2023-05-08T13:18:27.485Z,22.09
2023-05-08T13:20:54.695Z,22.17
2023-05-08T13:23:21.164Z,22.04
2023-05-08T13:25:47.777Z,21.93
2023-05-08T13:28:14.348Z,22.09
2023-05-08T13:30:40.880Z,22.11
2023-05-08T13:33:07.836Z,22.04
2023-05-08T13:35:34.589Z,21.85
2023-05-08T13:38:01.460Z,21.75
2023-05-08T13:40:28.207Z,21.79
2023-05-08T13:42:54.721Z,21.89
2023-05-08T13:45:21.397Z,21.97
2023-05-08T13:47:49.197Z,22.29
2023-05-08T13:50:19.490Z,22.47
2023-05-08T13:52:46.048Z,22.67
2023-05-08T13:55:14.076Z,22.50
2023-05-08T13:57:41.054Z,22.29
2023-05-08T14:00:08.959Z,22.45
2023-05-08T14:02:37.220Z,22.55
2023-05-08T14:05:05.125Z,22.43
2023-05-08T14:07:31.594Z,22.51
2023-05-08T14:09:58.070Z,22.52
2023-05-08T14:12:24.544Z,22.55
2023-05-08T14:14:50.948Z,22.41
2023-05-08T14:17:17.444Z,22.37
2023-05-08T14:19:44.112Z,22.21
2023-05-08T14:22:10.576Z,22.24
2023-05-08T14:24:37.003Z,22.09
2023-05-08T14:27:05.983Z,22.08
2023-05-08T14:29:33.422Z,22.17
2023-05-08T14:32:00.065Z,22.13
2023-05-08T14:34:26.932Z,22.27
2023-05-08T14:36:53.540Z,22.35
2023-05-08T14:39:20.187Z,22.26
2023-05-08T14:41:59.719Z,22.27
2023-05-08T14:44:33.222Z,22.46
2023-05-08T14:46:59.677Z,22.25
2023-05-08T14:49:36.589Z,22.22
2023-05-08T14:52:04.710Z,22.40
2023-05-08T14:54:31.799Z,22.39
2023-05-08T14:56:58.525Z,22.31
2023-05-08T14:59:25.082Z,22.24
2023-05-08T15:01:51.677Z,22.06
2023-05-08T15:04:18.292Z,22.03
2023-05-08T15:06:44.761Z,21.97
2023-05-08T15:09:11.334Z,22.00
2023-05-08T15:11:37.842Z,21.87
2023-05-08T15:14:05.284Z,21.86
2023-05-08T15:16:32.225Z,21.94
2023-05-08T15:18:58.815Z,21.93
2023-05-08T15:21:28.640Z,21.94
2023-05-08T15:23:55.664Z,21.88
2023-05-08T15:26:22.833Z,21.74
2023-05-08T15:28:49.516Z,21.74
2023-05-08T15:31:16.278Z,21.72
2023-05-08T15:33:44.842Z,21.64
2023-05-08T15:36:13.030Z,21.74
2023-05-08T15:38:40.900Z,21.75
2023-05-08T15:41:07.423Z,21.79
2023-05-08T15:43:33.892Z,21.87
2023-05-08T15:46:00.439Z,21.82
2023-05-08T15:48:27.136Z,21.70
2023-05-08T15:50:53.738Z,21.57
2023-05-08T15:53:20.265Z,21.57
2023-05-08T15:55:46.676Z,21.60
2023-05-08T15:58:13.122Z,21.60
2023-05-08T16:00:44.748Z,21.60
2023-05-08T16:03:12.288Z,21.63
2023-05-08T16:05:39.426Z,21.49
2023-05-08T16:08:06.226Z,21.31
2023-05-08T16:10:32.751Z,21.15
2023-05-08T16:12:59.348Z,21.07
2023-05-08T16:15:25.916Z,21.04
2023-05-08T16:17:52.447Z,21.01
2023-05-08T16:20:19.047Z,21.01
2023-05-08T16:22:45.736Z,20.93
2023-05-08T16:25:12.603Z,20.87
2023-05-08T16:27:39.189Z,20.89
2023-05-08T16:30:06.446Z,20.91
2023-05-08T16:32:32.982Z,20.88
2023-05-08T16:34:59.448Z,20.85
2023-05-08T16:37:25.941Z,20.75
2023-05-08T16:39:52.382Z,20.63
2023-05-08T16:42:19.200Z,20.50
2023-05-08T16:44:45.738Z,20.45
2023-05-08T16:47:12.474Z,20.38
2023-05-08T16:49:40.442Z,20.48
2023-05-08T16:52:07.188Z,20.50
2023-05-08T16:54:33.969Z,20.55
2023-05-08T16:57:00.532Z,20.68
2023-05-08T16:59:26.991Z,20.72
2023-05-08T17:01:54.572Z,20.71
2023-05-08T17:04:21.041Z,20.76
2023-05-08T17:06:47.489Z,20.83
2023-05-08T17:09:13.956Z,20.84
2023-05-08T17:11:40.450Z,20.72
2023-05-08T17:14:06.957Z,20.72
2023-05-08T17:16:33.453Z,20.72
2023-05-08T17:19:00.548Z,20.67
2023-05-08T17:21:27.076Z,20.51
2023-05-08T17:23:53.569Z,20.43
2023-05-08T17:26:22.296Z,20.33
2023-05-08T17:28:48.784Z,20.18
2023-05-08T17:31:15.902Z,20.03
2023-05-08T17:33:42.508Z,19.92
2023-05-08T17:36:09.210Z,19.76
2023-05-08T17:38:38.212Z,19.64
2023-05-08T17:41:04.772Z,19.62
2023-05-08T17:43:31.509Z,19.71
2023-05-08T17:45:58.106Z,19.60
2023-05-08T17:48:24.637Z,19.58
2023-05-08T17:50:51.149Z,19.63
2023-05-08T17:53:17.661Z,19.55
2023-05-08T17:55:44.127Z,19.50
2023-05-08T17:58:10.572Z,19.39
2023-05-08T18:00:37.712Z,19.37
2023-05-08T18:03:04.855Z,19.29
2023-05-08T18:05:31.518Z,19.29
2023-05-08T18:07:57.995Z,19.31
2023-05-08T18:10:24.487Z,19.26
2023-05-08T18:12:50.997Z,19.20
2023-05-08T18:15:17.550Z,19.12
2023-05-08T18:17:44.186Z,19.11
2023-05-08T18:20:11.258Z,19.09
2023-05-08T18:22:37.900Z,19.02
2023-05-08T18:25:04.635Z,18.92
2023-05-08T18:27:34.126Z,18.83
2023-05-08T18:30:00.793Z,18.84
2023-05-08T18:32:27.812Z,18.80
2023-05-08T18:34:54.385Z,18.81
2023-05-08T18:37:21.001Z,18.67
2023-05-08T18:39:47.508Z,18.64
2023-05-08T18:42:13.947Z,18.60
2023-05-08T18:44:41.001Z,18.51
2023-05-08T18:47:07.488Z,18.45
2023-05-08T18:49:33.946Z,18.38
2023-05-08T18:52:00.396Z,18.31
2023-05-08T18:54:27.059Z,18.24
2023-05-08T18:56:54.254Z,18.18
2023-05-08T18:59:21.469Z,18.16
2023-05-08T19:01:48.376Z,18.07
2023-05-08T19:04:14.991Z,18.03
2023-05-08T19:06:41.657Z,17.99
2023-05-08T19:09:08.898Z,17.94
2023-05-08T19:11:35.815Z,17.85
2023-05-08T19:14:02.330Z,17.82
2023-05-08T19:16:29.127Z,17.81
2023-05-08T19:18:55.734Z,17.76
2023-05-08T19:21:22.196Z,17.68
2023-05-08T19:23:48.689Z,17.63
2023-05-08T19:26:15.534Z,17.59
2023-05-08T19:28:41.962Z,17.57
2023-05-08T19:31:08.422Z,17.50
2023-05-08T19:33:34.866Z,17.46
2023-05-08T19:36:01.385Z,17.41
2023-05-08T19:38:27.844Z,17.36
2023-05-08T19:40:57.590Z,17.32
2023-05-08T19:43:25.885Z,17.27
2023-05-08T19:45:52.446Z,17.24
2023-05-08T19:48:20.122Z,17.21
2023-05-08T19:50:46.781Z,17.12
2023-05-08T19:53:13.714Z,17.06
2023-05-08T19:55:40.437Z,17.01
2023-05-08T19:58:06.874Z,16.94
2023-05-08T20:00:33.357Z,16.90
2023-05-08T20:02:59.840Z,16.87
2023-05-08T20:05:26.462Z,16.80
2023-05-08T20:07:52.905Z,16.69
2023-05-08T20:10:19.385Z,16.64
2023-05-08T20:12:45.897Z,16.59
2023-05-08T20:15:12.537Z,16.54
2023-05-08T20:17:39.293Z,16.49
2023-05-08T20:20:06.591Z,16.37
2023-05-08T20:22:33.140Z,16.29
2023-05-08T20:25:01.127Z,16.25
2023-05-08T20:27:29.236Z,16.27
2023-05-08T20:29:55.976Z,16.24
2023-05-08T20:32:22.764Z,16.19
2023-05-08T20:34:49.305Z,16.13
2023-05-08T20:37:16.027Z,16.10
2023-05-08T20:39:43.226Z,16.00
2023-05-08T20:42:09.695Z,15.96
2023-05-08T20:44:36.206Z,15.91
2023-05-08T20:47:02.846Z,15.90
2023-05-08T20:49:29.342Z,15.96
2023-05-08T20:51:55.743Z,15.94
2023-05-08T20:54:22.297Z,15.91
2023-05-08T20:56:48.829Z,15.86
2023-05-08T20:59:16.673Z,15.82
2023-05-08T21:01:43.309Z,15.79
2023-05-08T21:04:10.127Z,15.77
2023-05-08T21:06:36.585Z,15.77
2023-05-08T21:09:06.630Z,15.77
2023-05-08T21:11:33.557Z,15.78
2023-05-08T21:14:00.137Z,15.77
2023-05-08T21:16:27.110Z,15.77
2023-05-08T21:18:55.414Z,15.77
2023-05-08T21:21:23.198Z,15.76
2023-05-08T21:23:49.655Z,15.75
2023-05-08T21:26:16.160Z,15.74
2023-05-08T21:28:42.699Z,15.72
2023-05-08T21:31:09.235Z,15.70
2023-05-08T21:33:35.929Z,15.65
2023-05-08T21:36:02.496Z,15.63
2023-05-08T21:38:29.034Z,15.59
2023-05-08T21:40:55.757Z,15.57
2023-05-08T21:43:24.274Z,15.54
2023-05-08T21:45:50.787Z,15.51
2023-05-08T21:48:17.293Z,15.51
2023-05-08T21:50:43.794Z,15.52
2023-05-08T21:53:10.275Z,15.50
2023-05-08T21:55:36.715Z,15.42
2023-05-08T21:58:03.146Z,15.37
2023-05-08T22:00:29.697Z,15.34
2023-05-08T22:02:56.333Z,15.31
2023-05-08T22:05:23.548Z,15.30
2023-05-08T22:07:50.002Z,15.30
2023-05-08T22:10:16.721Z,15.32
2023-05-08T22:12:43.251Z,15.30
2023-05-08T22:15:25.510Z,15.28
2023-05-08T22:17:56.057Z,15.27
2023-05-08T22:20:22.751Z,15.27
2023-05-08T22:22:49.327Z,15.24
2023-05-08T22:25:16.155Z,15.24
2023-05-08T22:27:42.680Z,15.24
2023-05-08T22:30:09.304Z,15.23
2023-05-08T22:32:36.423Z,15.22
2023-05-08T22:35:02.909Z,15.18
2023-05-08T22:37:30.337Z,15.15
2023-05-08T22:39:56.838Z,15.13
2023-05-08T22:42:24.443Z,15.12
2023-05-08T22:44:51.243Z,15.12
2023-05-08T22:47:17.783Z,15.09
2023-05-08T22:49:44.193Z,15.05
2023-05-08T22:52:10.666Z,15.02
2023-05-08T22:54:37.132Z,15.02
2023-05-08T22:57:03.800Z,14.98
2023-05-08T22:59:30.239Z,14.95
2023-05-08T23:01:56.782Z,14.92
2023-05-08T23:04:23.385Z,14.90
2023-05-08T23:06:49.908Z,14.89
2023-05-08T23:09:16.518Z,14.87
2023-05-08T23:11:43.046Z,14.82
2023-05-08T23:14:09.498Z,14.82
2023-05-08T23:16:36.136Z,14.78
2023-05-08T23:19:03.359Z,14.75
2023-05-08T23:21:29.830Z,14.71
2023-05-08T23:23:56.475Z,14.68
2023-05-08T23:26:22.875Z,14.66
2023-05-08T23:28:49.394Z,14.66
2023-05-08T23:31:16.790Z,14.64
2023-05-08T23:33:43.302Z,14.61
2023-05-08T23:36:09.927Z,14.59
2023-05-08T23:38:36.405Z,14.58
2023-05-08T23:41:02.883Z,14.56
2023-05-08T23:43:29.305Z,14.53
2023-05-08T23:45:55.815Z,14.50
2023-05-08T23:48:22.465Z,14.47
2023-05-08T23:50:49.104Z,14.46
2023-05-08T23:53:15.543Z,14.43
2023-05-08T23:55:42.014Z,14.41
2023-05-08T23:58:08.636Z,14.43
